map of PFQ home
PFQ - Airport
Location
City:  Parsabad, Azarbayjan-e Sharqi, Iran
Name:Parsabad-Moghan
ICAO:OITP
IATA:PFQ

Details
Type:Airport (Aerodrome, Airfield)
Latitude:3936'13"N (39.603606)
Longitude:4752'53"E (47.881500)
Datum:WGS 1984
Elevation:253 ft (77 m)
Variation:6.08E (WMM2015 magnetic declination)
0.07 annual change
Runways:1
Longest:8490 × 115 ft (2588 × 35 m), paved

Time
Time Zone:UTC+3:30 (DST+4:30)
Local Time:

Weather
METAR:OITP 121300Z 10006KT CAVOK 15/10 Q1007

Related Locations
Nearby:
Farthest:GMR: 11280 mi / 18154 km
Mangareva [Totegegie], Gambier Islands, PF

Find:

   beyond  
but within

Other Information
Maps:
NOTAMs:
Links:
Sources:

  
  • flag of Iran
  

Sectional Chart

Flight Planning
at skyvector.com

Satellite Image

Google Maps Satellite view

 

Copyright © 2004-2018 Karl L. Swartz. All rights reserved.
The Great Circle Mapper name and logo are trademarks of the Great Circle Mapper.
All other trademarks mentioned herein belong to their respective owners.
Please see credits for attibutions and further copyright information.

  Follow gcmap on Facebook Follow gcmap on Twitter Follow gcmap on Google+ GCmap on LinkedIn

hCard Microformat

Geo Microformat